Time;durP1;ratioP1;P1;durP2;ratioP2;P2;SDS_P1;SDS_P2;PMS_P1;PMS_P2;Temp;Humidity;BMP_temperature;BMP_pressure;BME280_temperature;BME280_humidity;BME280_pressure;Samples;Min_cycle;Max_cycle;Signal;HPM_P1;HPM_P2
2023/07/11 00:00:58;;;;;;;7.28;2.78;;;;;;;15.34;53.00;101794.78;4964851;28;20038;-73
2023/07/11 00:03:24;;;;;;;7.97;2.47;;;;;;;15.22;53.19;101795.34;4935195;28;20038;-72
2023/07/11 00:06:00;;;;;;;6.68;2.05;;;;;;;15.34;53.31;101786.88;4973489;28;20039;-67
2023/07/11 00:08:28;;;;;;;7.57;2.47;;;;;;;15.36;53.05;101785.03;4958444;28;20038;-70
2023/07/11 00:10:57;;;;;;;6.10;2.45;;;;;;;15.37;53.18;101789.34;4958997;28;20043;-72
2023/07/11 00:13:23;;;;;;;7.80;2.30;;;;;;;15.38;53.26;101776.13;4959922;28;20037;-72
2023/07/11 00:16:00;;;;;;;6.03;2.53;;;;;;;15.38;52.99;101777.91;4961894;28;20034;-70
2023/07/11 00:18:26;;;;;;;7.47;2.70;;;;;;;15.32;53.20;101776.41;4958789;28;20585;-71
2023/07/11 00:20:51;;;;;;;5.43;2.42;;;;;;;15.31;53.07;101772.06;4957721;28;21372;-66
2023/07/11 00:23:19;;;;;;;3.45;2.15;;;;;;;15.29;53.47;101771.28;4956769;28;20323;-66
2023/07/11 00:25:47;;;;;;;5.03;2.13;;;;;;;15.23;53.68;101768.94;4959624;28;20478;-66
2023/07/11 00:28:15;;;;;;;5.20;2.17;;;;;;;15.25;53.18;101756.53;4962566;28;20038;-66
2023/07/11 00:30:41;;;;;;;7.85;2.33;;;;;;;15.07;53.54;101763.47;4948710;28;20371;-67
2023/07/11 00:33:10;;;;;;;4.88;2.20;;;;;;;15.25;53.68;101761.81;4962122;28;20481;-67
2023/07/11 00:35:41;;;;;;;8.70;2.08;;;;;;;15.18;53.56;101758.56;4956141;28;20042;-67
2023/07/11 00:38:09;;;;;;;7.25;1.88;;;;;;;15.13;53.71;101763.19;4962269;28;20560;-68
2023/07/11 00:40:48;;;;;;;10.05;2.65;;;;;;;15.17;53.48;101756.88;4957758;28;20350;-67
2023/07/11 00:43:17;;;;;;;7.45;2.47;;;;;;;15.05;53.88;101761.84;4965658;28;20046;-68
2023/07/11 00:45:49;;;;;;;6.53;2.10;;;;;;;15.08;54.10;101756.41;4972813;28;20320;-69
2023/07/11 00:48:16;;;;;;;8.73;3.03;;;;;;;15.14;53.91;101758.78;4973403;28;20081;-67
2023/07/11 00:50:42;;;;;;;8.30;1.83;;;;;;;15.21;53.76;101756.72;4972705;28;20666;-66
2023/07/11 00:53:08;;;;;;;9.27;3.40;;;;;;;15.33;53.48;101750.94;4966554;28;20038;-66
2023/07/11 00:55:38;;;;;;;5.35;2.22;;;;;;;15.41;53.29;101745.31;4954224;28;20603;-65
2023/07/11 00:58:05;;;;;;;4.47;2.13;;;;;;;15.53;53.09;101747.38;4959022;28;20038;-66
2023/07/11 01:00:40;;;;;;;6.80;2.30;;;;;;;15.57;52.64;101739.25;4940904;28;20447;-66
2023/07/11 01:03:06;;;;;;;6.18;3.35;;;;;;;15.56;52.70;101742.81;4958531;28;20065;-66
2023/07/11 01:05:37;;;;;;;6.38;2.30;;;;;;;15.51;52.81;101741.31;4961171;28;20144;-68
2023/07/11 01:08:02;;;;;;;4.78;1.95;;;;;;;15.50;53.22;101742.22;4960270;28;20522;-67
2023/07/11 01:10:30;;;;;;;8.32;2.45;;;;;;;15.49;53.03;101741.38;4963525;28;20073;-66
2023/07/11 01:13:01;;;;;;;6.57;2.67;;;;;;;15.47;53.06;101737.97;4956489;28;20076;-66
2023/07/11 01:15:27;;;;;;;9.40;2.45;;;;;;;15.47;52.81;101743.25;4950677;28;20051;-70
2023/07/11 01:17:52;;;;;;;5.72;2.28;;;;;;;15.48;52.96;101726.53;4956503;28;20089;-70
2023/07/11 01:20:22;;;;;;;5.20;2.53;;;;;;;15.43;53.39;101730.28;4952463;28;20058;-68
2023/07/11 01:22:51;;;;;;;7.03;1.95;;;;;;;15.47;53.14;101724.81;4956080;28;20620;-69
2023/07/11 01:25:16;;;;;;;7.05;2.28;;;;;;;15.54;52.76;101728.00;4959616;28;20034;-70
2023/07/11 01:27:45;;;;;;;9.07;2.80;;;;;;;15.55;53.08;101727.94;4971372;28;20413;-69
2023/07/11 01:30:13;;;;;;;8.18;2.67;;;;;;;15.44;53.18;101717.06;4935613;28;20501;-70
2023/07/11 01:32:39;;;;;;;13.13;3.28;;;;;;;15.40;53.21;101720.75;4955338;28;20034;-70
2023/07/11 01:35:05;;;;;;;7.30;2.30;;;;;;;15.49;53.24;101715.03;4962082;28;20053;-70
2023/07/11 01:37:31;;;;;;;6.03;2.72;;;;;;;15.55;53.05;101716.50;4958022;28;20035;-70
2023/07/11 01:40:03;;;;;;;6.65;2.63;;;;;;;15.68;52.91;101703.63;4962462;28;20639;-70
2023/07/11 01:42:28;;;;;;;7.72;2.35;;;;;;;15.74;52.63;101708.59;4958349;28;20035;-70
2023/07/11 01:44:53;;;;;;;6.72;2.58;;;;;;;15.59;53.13;101708.41;4969569;28;20073;-69
2023/07/11 01:47:21;;;;;;;8.30;2.20;;;;;;;15.58;53.11;101704.06;4959780;28;20281;-69
2023/07/11 01:49:50;;;;;;;12.07;2.92;;;;;;;15.49;53.49;101695.75;4962602;28;20544;-69
2023/07/11 01:52:24;;;;;;;9.45;2.53;;;;;;;15.54;53.76;101684.06;4958077;28;20045;-69
2023/07/11 01:54:50;;;;;;;10.35;3.20;;;;;;;15.51;53.35;101684.22;4945832;28;20049;-69
2023/07/11 01:57:16;;;;;;;5.93;2.10;;;;;;;15.54;53.41;101688.47;4966037;28;20042;-69
2023/07/11 01:59:42;;;;;;;8.80;1.98;;;;;;;15.52;53.14;101690.31;4947980;28;20135;-68
2023/07/11 02:02:09;;;;;;;8.30;2.97;;;;;;;15.44;53.45;101693.34;4965127;28;20057;-67
2023/07/11 02:04:36;;;;;;;8.73;2.85;;;;;;;15.62;53.16;101690.72;4948113;28;20409;-67
2023/07/11 02:07:06;;;;;;;10.57;2.38;;;;;;;15.73;52.93;101684.03;4957583;28;20068;-68
2023/07/11 02:09:32;;;;;;;10.27;2.65;;;;;;;15.72;52.80;101686.72;4957533;28;20050;-67
2023/07/11 02:11:59;;;;;;;7.38;2.30;;;;;;;15.63;52.74;101674.00;4965478;28;20035;-68
2023/07/11 02:14:25;;;;;;;4.85;2.80;;;;;;;15.61;52.71;101678.50;4955506;28;20130;-67
2023/07/11 02:16:52;;;;;;;8.68;1.95;;;;;;;15.72;52.56;101668.28;4953256;28;20038;-68
2023/07/11 02:19:23;;;;;;;6.32;2.22;;;;;;;15.79;52.11;101672.31;4962353;28;20549;-67
2023/07/11 02:21:49;;;;;;;8.82;2.15;;;;;;;15.75;51.88;101668.13;4954742;28;20026;-67
2023/07/11 02:24:19;;;;;;;8.77;2.35;;;;;;;15.71;52.34;101670.06;4946206;28;20034;-68
2023/07/11 02:26:44;;;;;;;4.93;1.77;;;;;;;15.73;52.28;101667.38;4954868;28;20034;-68
2023/07/11 02:29:10;;;;;;;6.90;2.08;;;;;;;15.66;52.45;101660.66;4957145;28;20100;-68
2023/07/11 02:31:36;;;;;;;10.07;2.10;;;;;;;15.62;52.46;101654.72;4954002;28;20097;-68
2023/07/11 02:34:03;;;;;;;6.75;2.58;;;;;;;15.61;52.18;101657.41;4957622;28;20077;-67
2023/07/11 02:36:32;;;;;;;7.07;1.98;;;;;;;15.62;52.15;101651.19;4969494;28;20389;-68
2023/07/11 02:38:59;;;;;;;5.85;2.42;;;;;;;15.47;52.14;101645.75;4935379;28;20057;-69
2023/07/11 02:41:27;;;;;;;4.22;2.05;;;;;;;15.42;52.16;101637.25;4966671;28;20146;-67
2023/07/11 02:43:53;;;;;;;4.38;1.88;;;;;;;15.37;52.09;101639.22;4954316;28;20887;-67
2023/07/11 02:46:18;;;;;;;6.45;1.55;;;;;;;15.36;52.12;101625.22;4958002;28;20035;-67
2023/07/11 02:48:44;;;;;;;3.92;1.98;;;;;;;15.37;51.76;101631.31;4960271;28;20592;-67
2023/07/11 02:51:10;;;;;;;5.60;2.40;;;;;;;15.38;51.45;101625.16;4962428;28;20045;-67
2023/07/11 02:53:36;;;;;;;4.03;2.20;;;;;;;15.38;51.28;101619.88;4957874;28;20103;-67
2023/07/11 02:56:02;;;;;;;6.38;2.00;;;;;;;15.38;51.14;101620.72;4961894;28;20226;-67
2023/07/11 02:58:30;;;;;;;5.20;1.95;;;;;;;15.42;51.07;101615.31;4960238;28;20129;-68
2023/07/11 03:00:58;;;;;;;5.03;1.38;;;;;;;15.49;51.07;101614.94;4959438;28;20030;-69
2023/07/11 03:03:24;;;;;;;3.08;1.33;;;;;;;15.56;51.01;101605.78;4957402;28;20042;-66
2023/07/11 03:05:51;;;;;;;4.22;1.90;;;;;;;15.59;51.18;101602.16;4948645;28;20194;-67
2023/07/11 03:08:19;;;;;;;9.43;1.48;;;;;;;15.54;50.90;101598.91;4961455;28;20094;-66
2023/07/11 03:10:47;;;;;;;4.97;1.70;;;;;;;15.64;50.63;101600.16;4960811;28;20036;-67
2023/07/11 03:13:13;;;;;;;5.85;1.65;;;;;;;15.65;50.58;101598.38;4960350;28;20489;-68
2023/07/11 03:15:39;;;;;;;4.45;1.58;;;;;;;15.69;50.47;101592.88;4956433;28;20073;-68
2023/07/11 03:18:06;;;;;;;4.53;1.50;;;;;;;15.79;49.99;101599.38;4960899;28;20042;-67
2023/07/11 03:20:39;;;;;;;5.60;2.20;;;;;;;15.73;49.86;101593.56;4957721;28;20066;-66
2023/07/11 03:23:06;;;;;;;7.00;1.70;;;;;;;15.64;49.87;101586.09;4960637;28;20663;-66
2023/07/11 03:25:32;;;;;;;4.65;1.70;;;;;;;15.65;50.15;101587.81;4958296;28;20065;-67
2023/07/11 03:28:02;;;;;;;3.20;1.25;;;;;;;15.73;50.09;101577.75;4963428;28;20034;-69
2023/07/11 03:30:27;;;;;;;7.15;2.28;;;;;;;15.72;49.70;101578.69;4960063;28;20082;-68
2023/07/11 03:32:53;;;;;;;8.45;2.13;;;;;;;15.72;49.51;101573.41;4958032;28;20050;-68
2023/07/11 03:35:18;;;;;;;4.78;1.63;;;;;;;15.71;49.57;101571.72;4958296;28;20043;-68
2023/07/11 03:37:46;;;;;;;7.65;2.55;;;;;;;15.63;49.73;101571.25;4961669;28;20031;-68
2023/07/11 03:40:12;;;;;;;5.22;2.25;;;;;;;15.69;49.89;101568.31;4959313;28;20046;-68
2023/07/11 03:42:40;;;;;;;6.25;2.33;;;;;;;15.66;49.60;101568.44;4958795;28;20061;-66
2023/07/11 03:45:11;;;;;;;7.47;2.20;;;;;;;15.60;49.88;101566.97;4958753;28;20505;-66
2023/07/11 03:47:36;;;;;;;7.95;2.35;;;;;;;15.70;49.72;101562.09;4958008;28;20045;-66
2023/07/11 03:50:08;;;;;;;8.00;3.00;;;;;;;15.78;49.69;101555.50;4960783;28;20046;-66
2023/07/11 03:52:34;;;;;;;9.02;2.47;;;;;;;15.70;49.96;101555.03;4959395;28;20038;-67
2023/07/11 03:54:59;;;;;;;7.65;2.28;;;;;;;15.81;49.58;101543.94;4962982;28;20042;-67
2023/07/11 03:57:27;;;;;;;7.40;2.13;;;;;;;15.71;50.09;101546.22;4962984;28;20421;-67
2023/07/11 03:59:52;;;;;;;5.45;1.85;;;;;;;15.86;50.05;101539.28;4961355;28;21353;-65
2023/07/11 04:02:18;;;;;;;8.52;2.03;;;;;;;15.73;49.81;101543.50;4958399;28;20514;-70
2023/07/11 04:04:43;;;;;;;7.68;1.83;;;;;;;15.74;50.24;101542.56;4973959;28;20358;-69
2023/07/11 04:07:12;;;;;;;4.22;2.47;;;;;;;15.67;49.99;101536.75;4965672;28;20138;-69
2023/07/11 04:09:40;;;;;;;6.32;2.60;;;;;;;15.91;49.70;101539.91;4946253;28;20097;-67
2023/07/11 04:12:09;;;;;;;3.72;2.13;;;;;;;15.92;49.59;101533.69;4939682;28;20035;-67
2023/07/11 04:14:38;;;;;;;7.25;1.45;;;;;;;15.86;49.73;101531.38;4940038;28;20047;-69
2023/07/11 04:17:12;;;;;;;4.28;1.80;;;;;;;15.90;49.73;101532.06;4940205;28;20034;-68
2023/07/11 04:19:38;;;;;;;5.10;1.50;;;;;;;16.05;49.31;101525.19;4936381;28;20035;-68
2023/07/11 04:22:03;;;;;;;4.78;1.90;;;;;;;16.14;49.09;101514.13;4937243;28;20035;-68
2023/07/11 04:24:29;;;;;;;3.53;1.67;;;;;;;15.90;49.50;101511.81;4954263;28;20057;-68
2023/07/11 04:26:54;;;;;;;6.13;2.40;;;;;;;15.96;49.33;101516.78;4939264;28;20031;-67
2023/07/11 04:29:20;;;;;;;4.70;1.85;;;;;;;15.97;49.64;101505.31;4947074;28;20421;-67
2023/07/11 04:31:47;;;;;;;4.57;2.28;;;;;;;16.05;49.51;101509.38;4958981;28;20030;-67
2023/07/11 04:34:15;;;;;;;4.30;1.88;;;;;;;15.98;49.51;101499.09;4950579;28;20050;-69
2023/07/11 04:36:43;;;;;;;5.32;1.63;;;;;;;16.28;49.15;101505.47;4954552;28;20555;-68
2023/07/11 04:39:09;;;;;;;5.32;1.85;;;;;;;16.27;48.84;101504.63;4938075;28;20134;-67
2023/07/11 04:41:34;;;;;;;5.18;2.10;;;;;;;16.35;48.88;101502.44;4938202;28;20063;-69
2023/07/11 04:44:00;;;;;;;6.55;2.42;;;;;;;16.55;48.33;101503.09;4937926;28;20133;-66
2023/07/11 04:46:25;;;;;;;4.68;1.88;;;;;;;16.58;48.15;101500.31;4940348;28;20068;-67
2023/07/11 04:48:53;;;;;;;5.10;1.55;;;;;;;16.87;48.02;101503.13;4936352;28;20071;-67
2023/07/11 04:51:18;;;;;;;6.47;1.92;;;;;;;17.01;47.49;101495.28;4938453;28;20039;-68
2023/07/11 04:53:44;;;;;;;6.53;1.85;;;;;;;16.93;47.31;101489.56;4940950;28;20054;-67
2023/07/11 04:56:10;;;;;;;7.07;1.75;;;;;;;16.97;47.11;101480.53;4939497;28;20405;-68
2023/07/11 04:58:36;;;;;;;4.05;1.60;;;;;;;17.02;47.04;101474.06;4926989;28;20089;-68
2023/07/11 05:01:07;;;;;;;7.28;1.58;;;;;;;17.00;46.89;101475.94;4938689;28;20034;-68
2023/07/11 05:03:33;;;;;;;6.65;2.28;;;;;;;17.12;47.12;101471.75;4936785;28;20501;-68
2023/07/11 05:06:03;;;;;;;7.50;1.48;;;;;;;16.95;47.13;101469.22;4940399;28;20031;-68
2023/07/11 05:08:31;;;;;;;5.53;2.03;;;;;;;17.30;46.57;101453.94;4935653;28;20113;-68
2023/07/11 05:11:05;;;;;;;4.43;1.40;;;;;;;17.31;46.37;101454.78;4937518;28;20031;-68
2023/07/11 05:13:32;;;;;;;6.43;1.90;;;;;;;17.12;46.45;101447.13;4938209;28;20644;-68
2023/07/11 05:16:05;;;;;;;3.45;1.15;;;;;;;17.62;45.60;101438.81;4953665;28;20035;-67
2023/07/11 05:18:31;;;;;;;7.05;1.92;;;;;;;17.89;44.95;101438.06;4936432;28;20045;-67
2023/07/11 05:20:58;;;;;;;2.30;1.33;;;;;;;18.92;43.09;101426.22;4937515;28;20038;-67
2023/07/11 05:23:27;;;;;;;4.65;1.15;;;;;;;19.63;40.82;101424.91;4936722;28;20155;-67
2023/07/11 05:25:54;;;;;;;3.38;1.58;;;;;;;18.89;42.46;101432.56;4935960;28;20970;-67
2023/07/11 05:28:27;;;;;;;7.05;1.15;;;;;;;19.42;41.68;101424.56;4942257;28;20031;-69
2023/07/11 05:30:54;;;;;;;2.72;1.10;;;;;;;19.82;41.73;101418.31;4963624;28;21516;-67
2023/07/11 05:33:20;;;;;;;5.72;1.00;;;;;;;21.24;38.31;101411.44;4954115;28;20125;-68
2023/07/11 05:36:05;;;;;;;3.42;0.75;;;;;;;20.81;38.84;101407.56;4958494;28;20041;-68
2023/07/11 05:38:31;;;;;;;7.13;1.10;;;;;;;21.91;37.01;101394.66;4956135;28;20050;-69
2023/07/11 05:40:56;;;;;;;6.30;1.15;;;;;;;22.51;35.24;101395.16;4960209;28;20136;-66
2023/07/11 05:43:22;;;;;;;12.10;1.08;;;;;;;22.07;36.14;101397.81;4973167;28;20128;-67
2023/07/11 05:45:48;;;;;;;2.67;1.30;;;;;;;23.64;33.27;101392.66;4957408;28;20030;-66
2023/07/11 05:48:13;;;;;;;2.67;0.77;;;;;;;24.75;31.09;101401.44;4942969;28;20669;-66
2023/07/11 05:50:39;;;;;;;1.95;0.68;;;;;;;24.45;31.33;101397.94;4955264;28;20053;-67
2023/07/11 05:53:04;;;;;;;5.72;0.95;;;;;;;24.95;30.88;101392.44;4958959;28;20102;-68
2023/07/11 05:55:30;;;;;;;3.13;1.02;;;;;;;25.96;28.30;101375.72;4970919;28;20509;-66
2023/07/11 05:57:55;;;;;;;3.55;0.70;;;;;;;25.71;29.05;101380.81;4958070;28;20037;-65
2023/07/11 06:00:21;;;;;;;4.82;0.77;;;;;;;25.79;28.65;101370.16;4944963;28;20385;-67
2023/07/11 06:02:46;;;;;;;2.47;0.40;;;;;;;25.55;29.25;101368.03;4959396;28;20034;-68
2023/07/11 06:05:15;;;;;;;6.65;1.15;;;;;;;25.13;29.86;101365.81;4955256;28;20121;-69
2023/07/11 06:07:41;;;;;;;3.78;0.68;;;;;;;26.24;28.62;101369.31;4960582;28;20136;-68
2023/07/11 06:10:07;;;;;;;1.48;0.30;;;;;;;26.20;27.75;101359.06;4960906;28;20035;-68
2023/07/11 06:12:33;;;;;;;2.65;0.52;;;;;;;26.23;27.94;101364.97;4961658;28;20042;-67
2023/07/11 06:14:59;;;;;;;2.65;0.50;;;;;;;26.73;27.98;101355.53;4960696;28;20089;-68
2023/07/11 06:17:28;;;;;;;3.97;0.90;;;;;;;27.09;26.36;101345.53;4958531;28;20041;-68
2023/07/11 06:19:54;;;;;;;7.30;0.50;;;;;;;26.32;28.05;101352.50;4958683;28;20038;-68
2023/07/11 06:22:19;;;;;;;5.60;0.93;;;;;;;27.11;26.69;101346.22;4960782;28;20034;-71
2023/07/11 06:24:47;;;;;;;6.35;0.80;;;;;;;26.57;26.74;101350.84;4956974;28;20073;-71
2023/07/11 06:27:13;;;;;;;2.25;0.82;;;;;;;26.76;26.91;101338.28;4961940;28;20030;-72
2023/07/11 06:29:41;;;;;;;1.23;0.40;;;;;;;27.52;26.14;101341.06;4959409;28;20043;-69
2023/07/11 06:32:09;;;;;;;3.35;0.52;;;;;;;27.46;26.48;101333.66;4965112;28;20027;-68
2023/07/11 06:34:37;;;;;;;4.88;0.55;;;;;;;28.40;24.99;101342.44;4956745;28;20113;-67
2023/07/11 06:37:05;;;;;;;2.03;0.53;;;;;;;28.54;24.64;101333.66;4962331;28;20106;-67
2023/07/11 06:39:31;;;;;;;2.38;0.52;;;;;;;29.73;23.77;101326.63;4960729;28;20748;-67
2023/07/11 06:41:56;;;;;;;1.50;0.47;;;;;;;30.20;22.50;101316.72;4976847;28;20045;-68
2023/07/11 06:44:25;;;;;;;4.38;0.55;;;;;;;29.94;22.21;101320.59;4960686;28;20409;-67
2023/07/11 06:46:50;;;;;;;3.63;0.60;;;;;;;28.89;24.07;101314.66;4964140;28;20034;-69
2023/07/11 06:49:18;;;;;;;4.15;0.88;;;;;;;28.69;24.00;101306.97;4962320;28;20815;-69
2023/07/11 06:51:44;;;;;;;5.82;0.52;;;;;;;29.43;23.68;101320.19;4961793;28;20034;-68
2023/07/11 06:54:09;;;;;;;1.80;0.50;;;;;;;30.56;22.20;101316.09;4961219;28;20042;-69
2023/07/11 06:56:35;;;;;;;2.47;0.70;;;;;;;30.49;22.09;101320.50;4959121;28;20046;-68
2023/07/11 06:59:03;;;;;;;2.08;0.57;;;;;;;30.50;22.37;101314.91;4959870;28;20122;-68
2023/07/11 07:01:29;;;;;;;2.67;0.60;;;;;;;29.69;22.68;101319.09;4958851;28;20129;-68
2023/07/11 07:03:55;;;;;;;6.78;0.98;;;;;;;29.64;22.82;101310.69;4961464;28;20053;-68
2023/07/11 07:06:21;;;;;;;6.60;0.95;;;;;;;28.77;23.65;101314.19;4960101;28;20428;-68
2023/07/11 07:08:47;;;;;;;4.13;0.70;;;;;;;27.70;25.39;101305.25;4951642;28;20129;-69
2023/07/11 07:11:12;;;;;;;1.63;0.50;;;;;;;28.65;24.77;101304.78;4961944;28;20113;-66
2023/07/11 07:13:38;;;;;;;2.03;0.50;;;;;;;29.43;22.69;101311.28;4955274;28;20042;-67
2023/07/11 07:16:04;;;;;;;2.40;0.63;;;;;;;30.19;22.32;101301.56;4962041;28;20105;-68
2023/07/11 07:18:32;;;;;;;1.63;0.50;;;;;;;30.34;21.80;101302.44;4957322;28;20039;-69
2023/07/11 07:21:44;;;;;;;6.03;0.60;;;;;;;30.32;22.68;101303.66;4950662;28;20034;-69
2023/07/11 07:24:11;;;;;;;3.30;0.47;;;;;;;30.22;22.65;101309.31;4960232;28;20045;-67
2023/07/11 07:26:37;;;;;;;4.05;0.50;;;;;;;29.88;23.02;101302.44;4939236;28;21247;-68
2023/07/11 07:29:03;;;;;;;2.08;0.82;;;;;;;30.58;22.23;101292.47;4960460;28;20053;-68
2023/07/11 07:31:30;;;;;;;3.03;0.65;;;;;;;30.04;22.75;101300.63;4962461;28;20034;-69
2023/07/11 07:33:55;;;;;;;2.38;0.50;;;;;;;30.28;22.93;101296.94;4960830;28;20645;-67
2023/07/11 07:36:21;;;;;;;2.72;0.68;;;;;;;28.90;24.04;101292.13;4960538;28;20062;-68
2023/07/11 07:38:47;;;;;;;2.10;0.38;;;;;;;29.21;23.61;101288.69;4974196;28;20046;-69
2023/07/11 07:41:13;;;;;;;2.15;0.60;;;;;;;27.75;25.56;101280.56;4960624;28;20904;-67
2023/07/11 07:43:43;;;;;;;2.13;0.50;;;;;;;27.59;25.92;101276.81;4958985;28;20061;-68
2023/07/11 07:46:13;;;;;;;2.22;0.50;;;;;;;27.68;26.22;101275.84;4963087;28;20432;-68
2023/07/11 07:48:38;;;;;;;1.73;0.40;;;;;;;28.30;25.31;101263.81;4960632;28;20478;-68
2023/07/11 07:51:11;;;;;;;2.88;0.70;;;;;;;28.17;25.62;101274.25;4960637;28;20117;-66
2023/07/11 07:53:37;;;;;;;2.90;0.50;;;;;;;27.78;25.60;101277.53;4956148;28;20464;-68
2023/07/11 07:56:35;;;;;;;4.07;0.50;;;;;;;28.31;25.60;101266.34;4961580;28;20485;-67
2023/07/11 07:59:00;;;;;;;3.88;0.60;;;;;;;29.06;24.47;101259.78;4957934;28;20246;-67
2023/07/11 08:01:26;;;;;;;2.53;0.40;;;;;;;28.73;25.10;101254.53;4958692;28;20572;-68
2023/07/11 08:03:51;;;;;;;4.65;0.70;;;;;;;27.56;26.27;101254.81;4957776;28;20051;-69
2023/07/11 08:06:19;;;;;;;1.77;0.47;;;;;;;28.42;25.45;101261.63;4958645;28;20055;-69
2023/07/11 08:08:46;;;;;;;3.42;0.60;;;;;;;28.57;25.03;101254.53;4955674;28;20109;-68
2023/07/11 08:11:13;;;;;;;1.67;0.52;;;;;;;28.38;25.92;101260.28;4945078;28;20035;-68
2023/07/11 08:13:39;;;;;;;3.22;0.70;;;;;;;28.69;25.83;101255.88;4953780;28;20054;-68
2023/07/11 08:16:04;;;;;;;3.38;0.45;;;;;;;29.26;24.79;101248.59;4957644;28;20031;-68
2023/07/11 08:18:30;;;;;;;3.13;0.98;;;;;;;28.85;24.42;101254.97;4940179;28;20042;-67
2023/07/11 08:20:57;;;;;;;3.03;0.60;;;;;;;28.23;25.43;101257.44;4958035;28;20052;-68
2023/07/11 08:23:23;;;;;;;1.27;0.60;;;;;;;28.08;25.89;101259.94;4957427;28;20093;-68
2023/07/11 08:25:52;;;;;;;4.47;0.75;;;;;;;27.91;26.32;101254.56;4960894;28;20162;-68
2023/07/11 08:28:18;;;;;;;3.83;0.40;;;;;;;28.30;26.52;101253.06;4957430;28;20036;-67
2023/07/11 08:30:43;;;;;;;3.17;0.80;;;;;;;28.24;25.64;101249.22;4960086;28;20038;-69
2023/07/11 08:33:09;;;;;;;1.27;0.40;;;;;;;27.75;26.41;101243.81;4960812;28;20038;-67
2023/07/11 08:35:34;;;;;;;7.80;0.63;;;;;;;27.54;26.97;101230.84;4954312;28;20066;-67
2023/07/11 08:38:06;;;;;;;4.00;0.55;;;;;;;26.82;27.88;101231.22;4958007;28;20042;-67
2023/07/11 08:40:38;;;;;;;2.45;0.65;;;;;;;26.52;28.44;101232.56;4953615;28;20051;-69
2023/07/11 08:43:06;;;;;;;3.20;0.60;;;;;;;26.69;27.97;101231.69;4971929;28;20572;-67
2023/07/11 08:45:46;;;;;;;1.58;0.65;;;;;;;26.65;29.48;101230.31;4952827;28;20323;-68
2023/07/11 08:48:24;;;;;;;3.13;0.50;;;;;;;27.22;28.32;101220.84;4956930;28;20042;-69
2023/07/11 08:51:04;;;;;;;2.03;0.40;;;;;;;28.53;26.13;101229.84;4954978;28;20709;-68
2023/07/11 08:53:37;;;;;;;2.47;0.50;;;;;;;28.22;26.08;101224.34;4954490;28;20042;-68
2023/07/11 08:56:19;;;;;;;4.68;0.90;;;;;;;28.19;26.91;101222.03;4959710;28;20030;-70
2023/07/11 08:58:48;;;;;;;3.05;0.65;;;;;;;27.55;26.90;101210.19;4953717;28;20038;-69
2023/07/11 09:01:25;;;;;;;2.53;0.77;;;;;;;27.41;27.46;101212.53;4958918;28;20034;-69
2023/07/11 09:03:50;;;;;;;3.28;0.43;;;;;;;27.81;27.29;101213.63;4956799;28;20046;-69
2023/07/11 09:06:21;;;;;;;3.58;1.02;;;;;;;28.20;25.92;101207.56;4954612;28;20628;-70
2023/07/11 09:08:49;;;;;;;3.65;0.47;;;;;;;28.86;26.03;101199.31;4965759;28;20053;-70
2023/07/11 09:11:23;;;;;;;3.20;0.63;;;;;;;27.91;26.36;101198.16;4955801;28;20042;-69
2023/07/11 09:14:10;;;;;;;4.97;0.93;;;;;;;27.55;27.78;101200.28;4951165;28;20105;-69
2023/07/11 09:16:40;;;;;;;3.58;0.50;;;;;;;27.67;27.64;101198.16;4953126;28;20614;-71
2023/07/11 09:19:14;;;;;;;3.42;0.90;;;;;;;28.18;26.48;101196.16;4958275;28;20042;-70
2023/07/11 09:21:51;;;;;;;3.47;0.70;;;;;;;28.41;26.40;101184.66;4952587;28;20054;-70
2023/07/11 09:24:48;;;;;;;3.55;0.77;;;;;;;29.78;24.92;101172.56;4953439;28;20108;-69
2023/07/11 09:27:21;;;;;;;4.15;1.10;;;;;;;30.80;23.37;101177.38;4956914;28;20101;-67
2023/07/11 09:29:48;;;;;;;5.95;1.52;;;;;;;31.80;22.68;101178.44;4968008;28;20042;-70
2023/07/11 09:32:16;;;;;;;3.72;1.65;;;;;;;31.38;22.28;101172.88;4957231;28;20045;-69
2023/07/11 09:34:50;;;;;;;3.15;1.40;;;;;;;30.60;22.94;101166.38;4954924;28;20043;-70
2023/07/11 09:37:30;;;;;;;3.53;0.98;;;;;;;31.30;22.60;101167.59;4957394;28;20030;-69
2023/07/11 09:40:11;;;;;;;2.78;0.57;;;;;;;31.06;22.49;101166.09;4954054;28;20130;-71
2023/07/11 09:42:40;;;;;;;4.32;0.95;;;;;;;30.21;23.60;101169.31;4953419;28;20072;-70
2023/07/11 09:45:14;;;;;;;5.47;1.85;;;;;;;29.99;23.76;101158.38;4954804;28;20038;-70
2023/07/11 09:47:42;;;;;;;3.05;0.82;;;;;;;29.63;24.97;101158.19;4951216;28;20034;-70
2023/07/11 09:50:33;;;;;;;7.15;1.10;;;;;;;29.84;24.17;101155.66;4970511;28;23695;-69
2023/07/11 09:53:01;;;;;;;1.63;0.70;;;;;;;29.47;24.69;101151.91;4957818;28;20050;-69
2023/07/11 09:55:34;;;;;;;8.02;0.95;;;;;;;29.37;24.23;101153.97;4951778;28;20483;-69
2023/07/11 09:58:03;;;;;;;4.65;0.85;;;;;;;29.62;24.28;101145.75;4955768;28;20049;-69
2023/07/11 10:00:29;;;;;;;2.55;0.60;;;;;;;27.73;26.53;101147.31;4951595;28;20074;-68
2023/07/11 10:02:59;;;;;;;3.20;0.45;;;;;;;28.48;25.43;101145.34;4966527;28;20121;-68
2023/07/11 10:05:25;;;;;;;2.17;0.80;;;;;;;28.72;24.44;101139.03;4951507;28;20042;-70
2023/07/11 10:08:01;;;;;;;3.22;0.73;;;;;;;28.15;25.82;101137.38;4951972;28;20058;-68
2023/07/11 10:10:27;;;;;;;2.10;0.80;;;;;;;29.05;23.61;101134.31;4951691;28;20493;-68
2023/07/11 10:12:53;;;;;;;3.33;0.77;;;;;;;29.41;24.75;101123.00;4953948;28;20566;-69
2023/07/11 10:15:23;;;;;;;3.85;0.50;;;;;;;29.62;23.97;101118.81;4953545;28;20200;-69
2023/07/11 10:17:55;;;;;;;1.65;0.93;;;;;;;29.49;23.65;101116.72;4951386;28;20360;-68
2023/07/11 10:20:21;;;;;;;11.23;0.80;;;;;;;30.34;23.58;101111.00;4957215;28;20481;-68
2023/07/11 10:22:50;;;;;;;6.32;0.90;;;;;;;30.60;23.00;101117.81;4952142;28;20519;-68
2023/07/11 10:25:22;;;;;;;3.15;0.98;;;;;;;31.58;21.29;101116.38;4954260;28;20046;-68
2023/07/11 10:27:58;;;;;;;1.80;0.47;;;;;;;31.02;22.09;101118.91;4965793;28;20504;-68
2023/07/11 10:30:28;;;;;;;1.40;0.47;;;;;;;31.03;20.97;101117.91;4950504;28;20057;-69
2023/07/11 10:33:02;;;;;;;3.27;0.87;;;;;;;31.12;21.18;101113.22;4933423;28;20046;-70
2023/07/11 10:35:29;;;;;;;1.00;0.55;;;;;;;31.24;21.00;101110.81;4950771;28;20110;-70
2023/07/11 10:38:01;;;;;;;3.10;0.75;;;;;;;31.76;21.22;101106.91;4952539;28;20492;-68
2023/07/11 10:40:31;;;;;;;2.78;0.63;;;;;;;32.01;20.95;101101.94;4949384;28;20064;-68
2023/07/11 10:43:10;;;;;;;1.45;0.70;;;;;;;32.30;21.33;101092.72;4951184;28;20100;-69
2023/07/11 10:45:43;;;;;;;2.83;0.50;;;;;;;32.32;20.61;101090.66;4931864;28;21114;-69
2023/07/11 10:48:32;;;;;;;1.95;0.80;;;;;;;30.95;20.98;101093.69;4936195;28;20062;-69
2023/07/11 10:51:14;;;;;;;2.15;0.80;;;;;;;30.47;21.29;101085.25;4952816;28;20113;-70
2023/07/11 10:53:48;;;;;;;3.70;1.00;;;;;;;30.30;21.46;101085.44;4951316;28;20066;-69
2023/07/11 10:56:19;;;;;;;;;;;;;;;29.65;22.28;101080.75;4969985;28;20054;-69
2023/07/11 10:58:45;;;;;;;5.20;0.60;;;;;;;29.03;21.37;101076.31;4945304;28;19922;-70
2023/07/11 11:01:29;;;;;;;4.38;0.52;;;;;;;29.23;22.48;101074.03;4949765;28;20039;-68
2023/07/11 11:04:20;;;;;;;4.07;0.65;;;;;;;30.60;20.94;101063.88;4938400;28;20046;-70
2023/07/11 11:06:51;;;;;;;4.43;0.80;;;;;;;30.73;21.16;101068.56;4949036;28;20145;-68
2023/07/11 11:09:36;;;;;;;3.03;0.98;;;;;;;30.42;20.69;101066.09;4970567;28;20065;-68
2023/07/11 11:12:05;;;;;;;2.75;0.90;;;;;;;28.89;21.93;101059.94;4970324;28;20041;-70
2023/07/11 11:14:40;;;;;;;4.85;0.80;;;;;;;30.20;20.51;101060.66;4947523;28;20051;-69
2023/07/11 11:17:12;;;;;;;6.20;0.40;;;;;;;30.59;20.31;101064.88;4953251;28;20402;-69
2023/07/11 11:19:59;;;;;;;4.63;0.70;;;;;;;30.89;20.39;101062.06;4957738;28;20149;-69
2023/07/11 11:22:49;;;;;;;1.50;0.40;;;;;;;30.55;21.06;101050.94;4957186;28;20030;-70
2023/07/11 11:25:23;;;;;;;3.15;0.47;;;;;;;31.05;20.66;101056.47;4959166;28;20131;-69
2023/07/11 11:28:24;;;;;;;3.20;0.50;;;;;;;30.78;20.92;101050.78;4953046;28;20043;-71
2023/07/11 11:31:04;;;;;;;4.97;0.73;;;;;;;30.32;20.65;101056.44;4947247;28;20121;-71
2023/07/11 11:33:54;;;;;;;3.70;0.47;;;;;;;30.44;20.98;101053.25;4958489;28;20045;-71